createdAt,value
2022-10-05T00:01:54.845Z,76.82
2022-10-05T00:04:26.260Z,77.02
2022-10-05T00:07:17.600Z,76.79
2022-10-05T00:09:45.617Z,76.77
2022-10-05T00:12:16.912Z,76.74
2022-10-05T00:14:44.686Z,76.74
2022-10-05T00:17:22.289Z,76.92
2022-10-05T00:19:52.217Z,77.33
2022-10-05T00:22:30.117Z,76.86
2022-10-05T00:24:58.693Z,77.05
2022-10-05T00:27:27.294Z,77.00
2022-10-05T00:29:58.422Z,76.83
2022-10-05T00:32:24.789Z,76.69
2022-10-05T00:34:51.373Z,76.83
2022-10-05T00:37:17.943Z,76.97
2022-10-05T00:39:44.358Z,76.81
2022-10-05T00:42:49.117Z,76.86
2022-10-05T00:45:27.226Z,76.69
2022-10-05T00:48:38.981Z,76.82
2022-10-05T00:51:26.152Z,76.69
2022-10-05T00:53:54.740Z,76.63
2022-10-05T00:56:58.006Z,76.82
2022-10-05T00:59:43.704Z,76.72
2022-10-05T01:02:23.716Z,76.63
2022-10-05T01:05:11.905Z,76.57
2022-10-05T01:07:50.763Z,76.61
2022-10-05T01:10:23.329Z,76.60
2022-10-05T01:13:08.315Z,76.35
2022-10-05T01:15:57.775Z,76.42
2022-10-05T01:18:48.529Z,76.42
2022-10-05T01:21:20.313Z,76.25
2022-10-05T01:24:19.058Z,76.00
2022-10-05T01:26:51.313Z,76.44
2022-10-05T01:29:27.285Z,76.57
2022-10-05T01:32:15.541Z,76.63
2022-10-05T01:34:41.764Z,76.66
2022-10-05T01:37:29.826Z,76.51
2022-10-05T01:40:22.748Z,76.39
2022-10-05T01:42:55.937Z,76.43
2022-10-05T01:45:53.940Z,76.28
2022-10-05T01:48:37.854Z,76.30
2022-10-05T01:51:12.095Z,76.21
2022-10-05T01:53:48.569Z,77.14
2022-10-05T07:58:44.396Z,73.06
2022-10-05T08:01:23.333Z,73.22
2022-10-05T08:03:54.305Z,73.20
2022-10-05T08:06:34.671Z,72.76
2022-10-05T08:09:14.804Z,73.13
2022-10-05T08:12:02.482Z,72.64
2022-10-05T08:14:37.553Z,72.64
2022-10-05T08:17:11.818Z,72.86
2022-10-05T08:19:54.259Z,72.47
2022-10-05T08:22:26.086Z,72.37
2022-10-05T08:24:59.434Z,72.60
2022-10-05T08:27:32.093Z,72.42
2022-10-05T08:30:01.531Z,72.52
2022-10-05T08:32:31.869Z,72.13
2022-10-05T08:35:11.624Z,72.28
2022-10-05T08:37:41.157Z,72.11
2022-10-05T08:40:35.728Z,72.04
2022-10-05T08:43:35.330Z,72.11
2022-10-05T08:46:20.187Z,71.90
2022-10-05T08:48:57.148Z,71.69
2022-10-05T08:51:45.740Z,71.71
2022-10-05T08:54:38.580Z,71.92
2022-10-05T08:57:46.549Z,72.02
2022-10-05T09:00:19.063Z,71.88
2022-10-05T09:03:13.429Z,71.46
2022-10-05T09:05:42.766Z,71.37
2022-10-05T09:08:37.989Z,71.31
2022-10-05T09:11:35.796Z,71.42
2022-10-05T09:14:21.785Z,71.43
2022-10-05T09:16:52.313Z,70.85
2022-10-05T09:19:57.056Z,70.83
2022-10-05T09:22:38.823Z,70.50
2022-10-05T09:25:29.019Z,70.14
2022-10-05T09:27:57.592Z,70.67
2022-10-05T09:30:33.176Z,70.05
2022-10-05T09:33:13.429Z,69.61
2022-10-05T09:35:54.989Z,69.85
2022-10-05T09:38:50.745Z,69.83
2022-10-05T09:41:35.350Z,69.54
2022-10-05T09:44:20.599Z,69.42
2022-10-05T09:47:21.140Z,67.92
2022-10-05T09:50:04.923Z,68.30
2022-10-05T09:52:59.692Z,67.54
2022-10-05T09:55:42.118Z,67.46
2022-10-05T09:58:44.440Z,67.25
2022-10-05T10:01:33.807Z,67.30
2022-10-05T10:04:28.609Z,67.42
2022-10-05T10:07:27.356Z,67.72
2022-10-05T10:10:15.457Z,67.45
2022-10-05T10:12:52.717Z,67.39
2022-10-05T10:15:35.008Z,68.01
2022-10-05T10:18:25.308Z,67.60
2022-10-05T10:20:58.939Z,67.23
2022-10-05T10:24:02.653Z,67.13
2022-10-05T10:27:06.599Z,67.24
2022-10-05T10:29:54.787Z,67.55
2022-10-05T10:32:27.120Z,67.91
2022-10-05T10:34:59.432Z,67.80
2022-10-05T10:37:45.201Z,68.17
2022-10-05T10:40:37.990Z,68.42
2022-10-05T10:43:35.841Z,67.91
2022-10-05T10:46:20.790Z,67.38
2022-10-05T10:48:50.219Z,68.11
2022-10-05T10:51:35.265Z,68.15
2022-10-05T10:54:25.169Z,68.21
2022-10-05T10:57:05.923Z,68.02
2022-10-05T11:00:07.937Z,68.85
2022-10-05T11:02:59.054Z,68.44
2022-10-05T11:05:49.003Z,68.87
2022-10-05T11:08:50.669Z,68.91
2022-10-05T11:11:19.872Z,69.17
2022-10-05T11:13:53.705Z,69.33
2022-10-05T11:16:55.013Z,69.32
2022-10-05T11:20:03.668Z,69.28
2022-10-05T11:22:46.595Z,69.40
2022-10-05T11:25:25.183Z,70.29
2022-10-05T11:28:00.365Z,69.35
2022-10-05T11:31:04.525Z,69.08
2022-10-05T11:34:02.472Z,69.48
2022-10-05T11:37:04.648Z,69.21
2022-10-05T11:39:55.641Z,69.32
2022-10-05T11:42:50.749Z,69.44
2022-10-05T11:45:24.094Z,69.60
2022-10-05T11:48:03.979Z,69.45
2022-10-05T11:50:39.934Z,69.70
2022-10-05T11:53:07.543Z,69.58
2022-10-05T11:55:43.562Z,69.60
2022-10-05T11:58:19.454Z,69.24
2022-10-05T12:01:18.111Z,69.39
2022-10-05T12:03:56.968Z,69.32
2022-10-05T12:06:42.093Z,69.12
2022-10-05T12:09:24.985Z,69.72
2022-10-05T12:12:14.167Z,69.61
2022-10-05T12:15:03.706Z,69.23
2022-10-05T12:17:37.969Z,68.36
2022-10-05T12:20:15.517Z,68.03
2022-10-05T12:23:06.363Z,68.38
2022-10-05T12:26:01.469Z,67.84
2022-10-05T12:28:35.206Z,67.33
2022-10-05T12:31:16.817Z,67.85
2022-10-05T12:34:01.894Z,67.24
2022-10-05T12:37:03.609Z,66.86
2022-10-05T12:39:33.685Z,67.71
2022-10-05T12:42:13.449Z,67.38
2022-10-05T12:45:24.697Z,67.33
2022-10-05T12:48:05.758Z,67.01
2022-10-05T12:50:37.202Z,67.18
2022-10-05T12:53:25.137Z,67.01
2022-10-05T12:56:13.587Z,67.41
2022-10-05T12:58:47.073Z,67.10
2022-10-05T13:01:37.110Z,67.61
2022-10-05T13:04:03.399Z,66.96
2022-10-05T13:06:42.170Z,67.06
2022-10-05T13:09:18.730Z,66.99
2022-10-05T13:11:50.853Z,66.88
2022-10-05T13:14:37.926Z,67.17
2022-10-05T13:17:15.014Z,67.46
2022-10-05T13:19:45.900Z,67.07
2022-10-05T13:22:30.594Z,67.05
2022-10-05T13:25:18.645Z,67.30
2022-10-05T13:28:12.715Z,67.59
2022-10-05T13:30:41.977Z,67.31
2022-10-05T13:33:40.661Z,67.46
2022-10-05T13:36:22.573Z,67.59
2022-10-05T13:38:58.338Z,67.61
2022-10-05T13:41:34.281Z,67.91
2022-10-05T13:44:28.630Z,67.77
2022-10-05T13:46:54.920Z,68.04
2022-10-05T13:49:26.907Z,68.17
2022-10-05T13:51:58.905Z,67.45
2022-10-05T13:54:40.490Z,67.03
2022-10-05T13:57:23.664Z,66.81
2022-10-05T13:59:54.688Z,66.54
2022-10-05T14:02:24.841Z,66.18
2022-10-05T14:04:58.428Z,65.99
2022-10-05T14:07:38.500Z,65.53
2022-10-05T14:10:11.879Z,64.93
2022-10-05T14:12:43.632Z,65.58
2022-10-05T14:15:28.049Z,65.12
2022-10-05T14:17:54.527Z,65.56
2022-10-05T14:20:31.472Z,65.33
2022-10-05T14:23:01.298Z,65.27
2022-10-05T14:25:29.063Z,65.17
2022-10-05T14:28:25.991Z,65.29
2022-10-05T14:31:13.579Z,65.19
2022-10-05T14:33:40.511Z,65.51
2022-10-05T14:36:21.259Z,65.11
2022-10-05T14:38:49.931Z,65.70
2022-10-05T14:41:27.285Z,65.46
2022-10-05T14:44:04.107Z,64.59
2022-10-05T14:46:34.459Z,64.59
2022-10-05T14:49:24.124Z,64.56
2022-10-05T14:51:51.481Z,65.07
2022-10-05T14:54:36.118Z,64.71
2022-10-05T14:57:08.001Z,65.22
2022-10-05T14:59:47.244Z,64.68
2022-10-05T15:02:36.962Z,64.68
2022-10-05T15:05:15.508Z,62.56
2022-10-05T15:07:44.853Z,60.68
2022-10-05T15:10:38.708Z,61.19
2022-10-05T15:13:12.615Z,61.99
2022-10-05T15:15:54.580Z,63.17
2022-10-05T15:18:34.672Z,64.08
2022-10-05T15:21:23.713Z,63.44
2022-10-05T15:23:55.137Z,63.57
2022-10-05T15:26:47.769Z,64.07
2022-10-05T15:29:38.499Z,63.83
2022-10-05T15:32:32.356Z,63.97
2022-10-05T15:35:24.041Z,64.14
2022-10-05T15:37:55.082Z,64.21
2022-10-05T15:40:35.367Z,63.89
2022-10-05T15:43:04.585Z,63.20
2022-10-05T15:45:34.099Z,63.49
2022-10-05T15:48:05.433Z,63.76
2022-10-05T15:50:56.771Z,63.71
2022-10-05T15:53:34.037Z,63.60
2022-10-05T15:56:25.072Z,63.24
2022-10-05T15:58:59.164Z,63.61
2022-10-05T16:01:49.810Z,63.69
2022-10-05T16:04:23.545Z,63.94
2022-10-05T16:07:14.482Z,63.83
2022-10-05T16:09:52.977Z,64.00
2022-10-05T16:12:30.768Z,64.45
2022-10-05T16:15:16.126Z,64.80
2022-10-05T16:17:54.817Z,65.32
2022-10-05T16:20:40.914Z,65.23
2022-10-05T16:23:29.712Z,65.32
2022-10-05T16:26:12.497Z,65.24
2022-10-05T16:28:49.760Z,65.47
2022-10-05T16:31:21.189Z,65.67
2022-10-05T16:34:06.482Z,65.75
2022-10-05T16:37:04.574Z,65.34
2022-10-05T16:39:52.283Z,65.88
2022-10-05T16:42:38.270Z,65.85
2022-10-05T16:45:23.962Z,66.40
2022-10-05T16:48:21.941Z,66.12
2022-10-05T16:51:07.630Z,65.99
2022-10-05T16:53:39.445Z,66.39
2022-10-05T16:56:13.601Z,66.58
2022-10-05T16:59:06.655Z,66.43
2022-10-05T17:01:43.590Z,66.99
2022-10-05T17:04:49.576Z,67.42
2022-10-05T17:07:47.509Z,67.17
2022-10-05T17:10:48.693Z,67.46
2022-10-05T17:13:19.590Z,67.73
2022-10-05T17:16:03.775Z,67.59
2022-10-05T17:19:02.476Z,67.75
2022-10-05T17:22:03.024Z,68.15
2022-10-05T17:24:44.538Z,68.01
2022-10-05T17:27:25.230Z,68.36
2022-10-05T17:29:56.660Z,68.29
2022-10-05T17:32:22.932Z,68.32
2022-10-05T17:35:01.535Z,68.61
2022-10-05T17:37:27.841Z,68.50
2022-10-05T17:39:56.220Z,68.76
2022-10-05T17:42:32.362Z,68.72
2022-10-05T17:45:12.050Z,69.15
2022-10-05T17:47:55.920Z,68.57
2022-10-05T17:50:57.501Z,68.93
2022-10-05T17:54:06.532Z,69.39
2022-10-05T17:56:58.765Z,69.34
2022-10-05T17:59:46.606Z,69.48
2022-10-05T18:02:36.363Z,69.56
2022-10-05T18:05:12.465Z,69.65
2022-10-05T18:07:40.095Z,69.44
2022-10-05T18:10:09.431Z,69.28
2022-10-05T18:12:48.244Z,69.56
2022-10-05T18:15:24.057Z,69.54
2022-10-05T18:18:19.510Z,70.34
2022-10-05T18:21:08.340Z,69.79
2022-10-05T18:23:36.245Z,69.75
2022-10-05T18:26:07.813Z,70.09
2022-10-05T18:28:51.632Z,69.78
2022-10-05T18:31:39.139Z,70.01
2022-10-05T18:34:43.483Z,69.70
2022-10-05T18:37:36.415Z,70.46
2022-10-05T18:40:27.137Z,69.98
2022-10-05T18:43:13.738Z,70.55
2022-10-05T18:46:08.067Z,70.20
2022-10-05T18:48:57.783Z,70.05
2022-10-05T18:51:28.597Z,70.61
2022-10-05T18:54:27.574Z,70.65
2022-10-05T18:56:54.151Z,71.91
2022-10-05T18:59:39.440Z,75.32
2022-10-05T19:02:10.888Z,76.33
2022-10-05T19:04:57.819Z,78.06
2022-10-05T19:07:43.905Z,80.81
2022-10-05T19:10:28.587Z,82.71
2022-10-05T19:13:02.581Z,84.35
2022-10-05T19:15:50.944Z,85.77
2022-10-05T19:18:30.497Z,86.55
2022-10-05T19:21:25.099Z,87.87
2022-10-05T19:24:16.039Z,88.18
2022-10-05T19:27:01.536Z,89.43
2022-10-05T19:29:41.259Z,90.32
2022-10-05T19:32:17.416Z,90.48
2022-10-05T19:34:43.716Z,91.02
2022-10-05T19:37:16.866Z,87.71
2022-10-05T19:40:20.433Z,89.07
2022-10-05T19:42:56.278Z,89.96
2022-10-05T19:45:23.075Z,90.90
2022-10-05T19:48:08.432Z,90.99
2022-10-05T19:50:37.666Z,91.10
2022-10-05T19:53:10.319Z,90.91
2022-10-05T19:55:41.826Z,90.44
2022-10-05T19:58:26.034Z,90.93
2022-10-05T20:01:00.944Z,90.33
2022-10-05T20:03:29.733Z,90.05
2022-10-05T20:06:01.557Z,89.90
2022-10-05T20:09:00.455Z,90.08
2022-10-05T20:11:27.895Z,90.49
2022-10-05T20:13:55.065Z,90.34
2022-10-05T20:16:50.202Z,90.68
2022-10-05T20:19:50.535Z,90.50
2022-10-05T20:22:27.081Z,90.75
2022-10-05T20:24:56.053Z,90.47
2022-10-05T20:27:48.735Z,90.43
2022-10-05T20:30:30.859Z,90.10
2022-10-05T20:32:58.122Z,90.11
2022-10-05T20:35:27.719Z,89.84
2022-10-05T20:38:00.128Z,89.83
2022-10-05T20:40:28.966Z,89.91
2022-10-05T20:42:56.765Z,89.53
2022-10-05T20:45:23.416Z,89.00
2022-10-05T20:47:50.931Z,88.91
2022-10-05T20:50:17.554Z,89.12
2022-10-05T20:52:44.142Z,89.28
2022-10-05T20:55:11.502Z,89.43
2022-10-05T20:57:41.484Z,88.64
2022-10-05T21:00:09.786Z,86.97
2022-10-05T21:02:37.986Z,86.52
2022-10-05T21:05:04.741Z,86.42
2022-10-05T21:07:34.012Z,87.54
2022-10-05T21:10:01.197Z,86.95
2022-10-05T21:12:27.580Z,86.78
2022-10-05T21:14:54.026Z,86.29
2022-10-05T21:17:20.397Z,86.57
2022-10-05T21:19:47.291Z,86.59
2022-10-05T21:22:13.740Z,86.65
2022-10-05T21:24:40.888Z,86.61
2022-10-05T21:27:07.595Z,86.61
2022-10-05T21:29:35.253Z,86.38
2022-10-05T21:32:03.429Z,86.37
2022-10-05T21:34:30.040Z,87.04
2022-10-05T21:36:56.401Z,87.29
2022-10-05T21:39:23.533Z,86.83
2022-10-05T21:41:50.009Z,86.61
2022-10-05T21:44:16.610Z,86.98
2022-10-05T21:46:43.027Z,87.48
2022-10-05T21:49:09.773Z,87.09
2022-10-05T21:51:36.614Z,86.91
2022-10-05T21:54:08.316Z,87.36
2022-10-05T21:56:38.609Z,87.21
2022-10-05T21:59:07.585Z,87.79
2022-10-05T22:01:35.958Z,87.66
2022-10-05T22:04:06.167Z,87.75
2022-10-05T22:06:33.486Z,87.81
2022-10-05T22:08:59.938Z,87.86
2022-10-05T22:11:26.377Z,87.65
2022-10-05T22:13:53.657Z,88.42
2022-10-05T22:16:21.887Z,88.14
2022-10-05T22:18:48.869Z,88.29
2022-10-05T22:21:15.649Z,88.33
2022-10-05T22:23:43.477Z,88.52
2022-10-05T22:26:11.844Z,88.25
2022-10-05T22:28:39.813Z,88.27
2022-10-05T22:31:17.378Z,88.83
2022-10-05T22:33:44.159Z,88.88
2022-10-05T22:36:12.945Z,88.89
2022-10-05T22:38:49.128Z,89.07
2022-10-05T22:41:19.943Z,88.86
2022-10-05T22:43:52.717Z,89.22
2022-10-05T22:46:20.269Z,89.16
2022-10-05T22:48:49.358Z,89.00
2022-10-05T22:51:19.102Z,89.05
2022-10-05T22:53:45.756Z,88.82
2022-10-05T22:56:13.513Z,88.27
2022-10-05T22:58:41.157Z,87.97
2022-10-05T23:01:12.809Z,87.79
2022-10-05T23:03:49.227Z,87.56
2022-10-05T23:06:18.393Z,87.28
2022-10-05T23:08:55.742Z,87.07
2022-10-05T23:11:27.170Z,86.86
2022-10-05T23:14:05.641Z,86.82
2022-10-05T23:16:32.884Z,86.31
2022-10-05T23:19:03.186Z,86.30
2022-10-05T23:21:30.352Z,86.12
2022-10-05T23:23:59.767Z,86.44
2022-10-05T23:26:28.544Z,86.35
2022-10-05T23:28:55.041Z,86.23
2022-10-05T23:31:23.766Z,85.90
2022-10-05T23:33:50.975Z,85.63
2022-10-05T23:36:23.631Z,85.49
2022-10-05T23:38:54.847Z,85.15
2022-10-05T23:41:21.435Z,84.83
2022-10-05T23:43:49.539Z,84.96
2022-10-05T23:46:21.183Z,84.84
2022-10-05T23:48:48.979Z,84.38
2022-10-05T23:51:19.107Z,84.61
2022-10-05T23:53:48.148Z,84.06
2022-10-05T23:56:19.935Z,84.22
2022-10-05T23:58:46.521Z,83.96
